Time;durP1;ratioP1;P1;durP2;ratioP2;P2;SDS_P1;SDS_P2;PMS_P1;PMS_P2;Temp;Humidity;BMP_temperature;BMP_pressure;BME280_temperature;BME280_humidity;BME280_pressure;Samples;Min_cycle;Max_cycle;Signal;HPM_P1;HPM_P2
2022/03/07 00:00:47;;;;;;;4.40;1.17;;;26.60;83.00;;;;;;5156817;22;20022;-63
2022/03/07 00:03:10;;;;;;;6.75;1.50;;;26.60;83.00;;;;;;5153973;22;21029;-62
2022/03/07 00:05:33;;;;;;;3.70;1.58;;;26.60;83.00;;;;;;5155542;22;20016;-64
2022/03/07 00:07:55;;;;;;;3.33;0.90;;;26.60;83.00;;;;;;5150964;22;20039;-63
2022/03/07 00:10:18;;;;;;;4.07;1.20;;;26.70;83.00;;;;;;5159302;22;20016;-63
2022/03/07 00:12:40;;;;;;;5.95;0.95;;;26.60;82.90;;;;;;5161270;22;20034;-63
2022/03/07 00:15:04;;;;;;;10.88;1.50;;;26.70;83.00;;;;;;5139666;22;20070;-65
2022/03/07 00:17:27;;;;;;;2.97;1.05;;;26.60;82.90;;;;;;5162089;22;20545;-67
2022/03/07 00:19:49;;;;;;;2.65;1.08;;;26.70;83.00;;;;;;5159742;22;20016;-66
2022/03/07 00:22:12;;;;;;;1.63;0.85;;;26.70;83.00;;;;;;5166188;22;20011;-64
2022/03/07 00:24:35;;;;;;;2.93;0.93;;;26.70;83.10;;;;;;5171047;22;20427;-65
2022/03/07 00:26:57;;;;;;;17.73;1.55;;;26.70;83.20;;;;;;5171895;22;20030;-67
2022/03/07 00:29:19;;;;;;;3.75;1.70;;;26.70;83.30;;;;;;5169286;22;20394;-66
2022/03/07 00:31:42;;;;;;;4.65;1.63;;;26.70;83.50;;;;;;5168838;22;20099;-68
2022/03/07 00:34:05;;;;;;;3.85;1.27;;;26.70;83.80;;;;;;5164443;22;20047;-69
2022/03/07 00:36:27;;;;;;;4.80;1.17;;;26.80;83.70;;;;;;5163096;22;20018;-70
2022/03/07 00:38:50;;;;;;;2.50;1.00;;;26.80;83.60;;;;;;5131041;22;20020;-69
2022/03/07 00:41:12;;;;;;;2.65;1.00;;;26.80;83.50;;;;;;5125410;22;20016;-67
2022/03/07 00:43:35;;;;;;;3.17;1.02;;;26.80;83.40;;;;;;5151669;22;20122;-69
2022/03/07 00:45:57;;;;;;;3.80;0.80;;;26.80;83.30;;;;;;5152553;22;20451;-65
2022/03/07 00:48:21;;;;;;;3.58;1.00;;;26.90;83.40;;;;;;5147697;22;20023;-70
2022/03/07 00:50:47;;;;;;;1.38;0.70;;;26.90;83.30;;;;;;5152032;22;20039;-73
2022/03/07 00:53:14;;;;;;;2.58;0.82;;;26.90;83.20;;;;;;5147859;22;20491;-77
2022/03/07 00:55:39;;;;;;;1.98;0.90;;;26.90;83.20;;;;;;5123336;22;20016;-73
2022/03/07 00:58:01;;;;;;;1.73;0.85;;;26.90;83.10;;;;;;5156400;22;20039;-70
2022/03/07 01:00:24;;;;;;;1.40;0.80;;;26.90;83.00;;;;;;5151380;22;20905;-70
2022/03/07 01:02:47;;;;;;;2.58;1.05;;;27.00;83.00;;;;;;5149373;22;20020;-72
2022/03/07 01:05:10;;;;;;;1.80;0.68;;;27.00;82.90;;;;;;5155619;22;20883;-74
2022/03/07 01:07:32;;;;;;;1.38;0.90;;;27.00;83.00;;;;;;5151954;22;20459;-75
2022/03/07 01:09:55;;;;;;;4.00;1.33;;;27.00;83.00;;;;;;5149958;22;20020;-72
2022/03/07 01:12:18;;;;;;;1.35;0.80;;;27.10;83.60;;;;;;5155171;22;20664;-68
2022/03/07 01:14:40;;;;;;;2.05;0.77;;;27.00;82.90;;;;;;5148415;22;20642;-71
2022/03/07 01:17:03;;;;;;;0.75;0.60;;;27.00;82.80;;;;;;5148104;22;20143;-74
2022/03/07 01:19:26;;;;;;;1.05;0.50;;;27.10;82.80;;;;;;5153027;22;20016;-71
2022/03/07 01:21:48;;;;;;;2.47;0.90;;;27.10;82.80;;;;;;5147968;22;20031;-72
2022/03/07 01:24:11;;;;;;;3.30;0.98;;;27.10;82.70;;;;;;5150628;22;20019;-73
2022/03/07 01:26:34;;;;;;;1.75;0.80;;;27.10;82.70;;;;;;5155940;22;20030;-74
2022/03/07 01:28:56;;;;;;;1.30;0.60;;;27.10;82.70;;;;;;5122075;22;20439;-71
2022/03/07 01:31:19;;;;;;;1.95;0.65;;;27.10;82.70;;;;;;5151619;22;20679;-74
2022/03/07 01:33:42;;;;;;;2.10;0.90;;;27.10;82.80;;;;;;5153414;22;20054;-76
2022/03/07 01:36:04;;;;;;;2.47;0.80;;;27.10;82.80;;;;;;5144903;22;20352;-73
2022/03/07 01:38:27;;;;;;;3.13;0.90;;;27.10;82.60;;;;;;5112356;22;20044;-72
2022/03/07 01:40:50;;;;;;;1.50;0.85;;;27.10;82.40;;;;;;5150815;22;20749;-73
2022/03/07 01:43:13;;;;;;;4.55;1.38;;;27.10;82.30;;;;;;5147348;22;20026;-73
2022/03/07 01:45:39;;;;;;;1.08;0.68;;;27.10;82.10;;;;;;5151270;22;20072;-73
2022/03/07 01:48:01;;;;;;;1.60;0.90;;;27.10;82.10;;;;;;5157830;22;20042;-74
2022/03/07 01:50:24;;;;;;;2.53;1.45;;;27.10;82.00;;;;;;5119120;22;20588;-72
2022/03/07 01:52:50;;;;;;;1.80;0.80;;;27.10;81.80;;;;;;5151592;22;20941;-72
2022/03/07 01:55:13;;;;;;;1.80;0.70;;;27.10;81.80;;;;;;5154303;22;20779;-72
2022/03/07 01:57:40;;;;;;;1.38;0.80;;;27.10;81.70;;;;;;5145888;22;20051;-73
2022/03/07 02:00:08;;;;;;;1.90;0.75;;;27.10;81.70;;;;;;5154692;22;20007;-72
2022/03/07 02:02:31;;;;;;;2.88;0.85;;;27.00;81.60;;;;;;5150535;22;20080;-74
2022/03/07 02:04:53;;;;;;;2.40;0.70;;;27.00;81.50;;;;;;5153536;22;20018;-73
2022/03/07 02:07:16;;;;;;;1.23;0.60;;;27.00;81.50;;;;;;5158127;22;20019;-73
2022/03/07 02:09:38;;;;;;;2.47;0.70;;;27.00;81.50;;;;;;5149484;22;20867;-73
2022/03/07 02:12:01;;;;;;;0.90;0.80;;;27.00;81.40;;;;;;5120685;22;20141;-68
2022/03/07 02:14:24;;;;;;;1.67;0.73;;;27.00;81.40;;;;;;5151102;22;20018;-73
2022/03/07 02:16:47;;;;;;;2.78;1.13;;;27.00;81.40;;;;;;5144568;22;20126;-75
2022/03/07 02:19:09;;;;;;;1.88;0.70;;;27.00;81.60;;;;;;5141931;22;20016;-73
2022/03/07 02:21:36;;;;;;;2.72;1.10;;;27.10;81.90;;;;;;5147354;22;20029;-70
2022/03/07 02:23:59;;;;;;;2.10;0.90;;;27.10;82.10;;;;;;5143033;22;20393;-73
2022/03/07 02:26:21;;;;;;;1.60;0.80;;;27.10;82.10;;;;;;5141392;22;20026;-72
2022/03/07 02:28:46;;;;;;;1.70;0.70;;;27.10;82.20;;;;;;5147844;22;20034;-71
2022/03/07 02:31:10;;;;;;;2.65;1.13;;;27.10;82.20;;;;;;5142840;22;20485;-71
2022/03/07 02:33:34;;;;;;;1.90;0.80;;;27.10;82.20;;;;;;5143262;22;20276;-72
2022/03/07 02:35:56;;;;;;;;;;;27.20;82.30;;;;;;5146523;22;20022;-73
2022/03/07 02:38:19;;;;;;;1.95;0.75;;;27.20;82.30;;;;;;5141299;22;19907;-67
2022/03/07 02:40:42;;;;;;;3.88;1.08;;;27.20;82.40;;;;;;5145107;22;20374;-71
2022/03/07 02:43:05;;;;;;;1.63;0.80;;;27.20;82.40;;;;;;5152074;22;20015;-70
2022/03/07 02:45:27;;;;;;;2.58;0.77;;;27.20;82.50;;;;;;5145573;22;20692;-66
2022/03/07 02:47:50;;;;;;;2.88;0.88;;;27.20;82.60;;;;;;5145372;22;20311;-72
2022/03/07 02:50:12;;;;;;;1.15;0.63;;;27.20;82.60;;;;;;5068052;22;20782;-68
2022/03/07 02:52:35;;;;;;;2.10;0.90;;;27.20;82.70;;;;;;5111019;23;20086;-69
2022/03/07 02:54:57;;;;;;;2.58;1.17;;;27.20;82.80;;;;;;5120176;23;20111;-70
2022/03/07 02:57:19;;;;;;;2.10;0.93;;;27.20;82.80;;;;;;5125818;23;20150;-73
2022/03/07 02:59:42;;;;;;;2.75;1.30;;;27.30;82.70;;;;;;5124298;23;20043;-67
2022/03/07 03:02:04;;;;;;;4.05;1.75;;;27.30;82.60;;;;;;5124508;23;20433;-71
2022/03/07 03:04:27;;;;;;;6.72;2.50;;;27.20;82.20;;;;;;5129978;23;20016;-71
2022/03/07 03:06:49;;;;;;;6.07;2.35;;;27.20;82.60;;;;;;5131255;23;20023;-69
2022/03/07 03:09:12;;;;;;;5.10;2.10;;;27.20;82.60;;;;;;5128896;23;20098;-72
2022/03/07 03:11:34;;;;;;;5.72;2.00;;;27.20;82.80;;;;;;5134375;23;20432;-68
2022/03/07 03:13:57;;;;;;;3.67;1.73;;;27.20;83.00;;;;;;5131986;23;20548;-68
2022/03/07 03:16:19;;;;;;;3.78;2.00;;;27.20;83.10;;;;;;5129543;23;20012;-71
2022/03/07 03:18:42;;;;;;;4.70;1.70;;;27.20;83.30;;;;;;5131413;23;20116;-68
2022/03/07 03:21:04;;;;;;;3.72;1.40;;;27.20;83.30;;;;;;5132295;23;20016;-71
2022/03/07 03:23:27;;;;;;;3.67;1.58;;;27.10;83.40;;;;;;5091979;23;20069;-70
2022/03/07 03:25:50;;;;;;;2.30;1.30;;;27.10;83.40;;;;;;5128204;23;20055;-71
2022/03/07 03:28:13;;;;;;;3.47;1.35;;;27.20;83.40;;;;;;5128593;23;20261;-71
2022/03/07 03:30:35;;;;;;;4.00;1.75;;;27.10;83.40;;;;;;5124001;23;20070;-71
2022/03/07 03:32:59;;;;;;;3.72;1.20;;;27.20;83.40;;;;;;5129200;23;20032;-72
2022/03/07 03:35:22;;;;;;;2.92;1.33;;;27.20;83.50;;;;;;5133650;23;20012;-75
2022/03/07 03:37:44;;;;;;;4.78;1.65;;;27.20;83.60;;;;;;5128838;23;20016;-72
2022/03/07 03:40:09;;;;;;;4.90;1.40;;;27.20;83.50;;;;;;5117033;23;20012;-68
2022/03/07 03:42:32;;;;;;;6.47;1.58;;;27.20;83.60;;;;;;5129525;23;20015;-67
2022/03/07 03:44:55;;;;;;;3.58;1.60;;;27.20;83.60;;;;;;5127627;23;20012;-65
2022/03/07 03:47:17;;;;;;;5.45;1.70;;;27.20;83.60;;;;;;5129011;23;20984;-67
2022/03/07 03:49:40;;;;;;;4.22;1.52;;;27.20;83.60;;;;;;5132827;23;20079;-68
2022/03/07 03:52:12;;;;;;;4.72;1.58;;;27.20;83.70;;;;;;5095407;23;20439;-69
2022/03/07 03:54:35;;;;;;;4.45;1.38;;;27.20;83.70;;;;;;5136338;23;20016;-71
2022/03/07 03:56:57;;;;;;;3.88;1.75;;;27.20;83.70;;;;;;5133948;23;20016;-69
2022/03/07 03:59:20;;;;;;;3.63;1.90;;;27.30;83.80;;;;;;5133698;23;20995;-66
2022/03/07 04:01:45;;;;;;;4.43;1.48;;;27.30;83.80;;;;;;5137920;23;20016;-66
2022/03/07 04:04:08;;;;;;;3.63;1.27;;;27.30;83.80;;;;;;5121228;23;20016;-66
2022/03/07 04:06:31;;;;;;;3.20;1.65;;;27.30;83.70;;;;;;5128236;23;20024;-71
2022/03/07 04:09:14;;;;;;;3.03;1.60;;;27.30;83.70;;;;;;5132251;23;20023;-76
2022/03/07 04:11:37;;;;;;;3.70;1.60;;;27.30;83.90;;;;;;5131487;23;20016;-68
2022/03/07 04:13:59;;;;;;;6.32;1.60;;;27.30;83.90;;;;;;5098943;23;20301;-66
2022/03/07 04:16:22;;;;;;;5.65;1.88;;;27.30;83.90;;;;;;5105003;23;20012;-68
2022/03/07 04:18:44;;;;;;;4.30;1.60;;;27.30;83.80;;;;;;5140203;23;20311;-66
2022/03/07 04:21:06;;;;;;;5.10;1.75;;;27.30;83.70;;;;;;5136369;23;20012;-64
2022/03/07 04:23:29;;;;;;;4.65;1.52;;;27.40;83.70;;;;;;5098868;23;20030;-67
2022/03/07 04:25:51;;;;;;;4.05;1.80;;;27.40;84.20;;;;;;5143606;23;20008;-72
2022/03/07 04:28:14;;;;;;;5.93;1.90;;;27.40;83.50;;;;;;5147914;23;20320;-76
2022/03/07 04:30:36;;;;;;;7.68;1.92;;;27.40;83.40;;;;;;5156083;23;20020;-70
2022/03/07 04:32:59;;;;;;;8.15;2.00;;;27.40;83.50;;;;;;5151316;23;20020;-69
2022/03/07 04:35:27;;;;;;;6.53;1.88;;;27.50;83.40;;;;;;5143814;23;20008;-69
2022/03/07 04:37:50;;;;;;;5.80;1.88;;;27.50;83.30;;;;;;5150449;23;20034;-71
2022/03/07 04:40:17;;;;;;;6.55;2.20;;;27.50;83.40;;;;;;5138866;23;21151;-71
2022/03/07 04:42:42;;;;;;;8.63;2.20;;;27.50;83.20;;;;;;5144238;23;20020;-72
2022/03/07 04:45:05;;;;;;;5.68;2.10;;;27.50;83.70;;;;;;5127991;23;20015;-69
2022/03/07 04:47:28;;;;;;;6.03;2.05;;;27.50;83.10;;;;;;5133754;23;20478;-72
2022/03/07 04:49:51;;;;;;;7.47;2.10;;;27.50;83.10;;;;;;5126413;23;20070;-76
2022/03/07 04:52:13;;;;;;;6.07;1.95;;;27.50;82.90;;;;;;5130363;23;20012;-73
2022/03/07 04:54:36;;;;;;;5.43;1.70;;;27.60;82.80;;;;;;5133078;23;20172;-69
2022/03/07 04:56:59;;;;;;;5.70;1.80;;;27.60;82.80;;;;;;5131599;23;20027;-72
2022/03/07 04:59:24;;;;;;;6.45;1.85;;;27.60;82.70;;;;;;5126596;23;20653;-70
2022/03/07 05:01:48;;;;;;;5.00;2.15;;;27.60;82.60;;;;;;5096350;23;20030;-74
2022/03/07 05:04:10;;;;;;;;;;;27.60;82.60;;;;;;5128112;23;20024;-70
2022/03/07 05:06:32;;;;;;;5.78;2.15;;;27.60;82.60;;;;;;5125259;23;19923;-71
2022/03/07 05:08:55;;;;;;;6.50;1.98;;;27.60;82.70;;;;;;5125363;23;20016;-72
2022/03/07 05:11:17;;;;;;;4.40;1.58;;;27.70;82.60;;;;;;5094959;23;20020;-71
2022/03/07 05:13:40;;;;;;;4.35;1.45;;;27.70;82.20;;;;;;5131035;23;20633;-76
2022/03/07 05:16:03;;;;;;;5.68;1.73;;;27.70;82.00;;;;;;5128113;23;20091;-72
2022/03/07 05:18:26;;;;;;;4.50;1.40;;;27.70;81.80;;;;;;5095129;23;20048;-66
2022/03/07 05:20:48;;;;;;;5.47;1.60;;;27.80;81.50;;;;;;5124116;23;20023;-68
2022/03/07 05:23:11;;;;;;;4.97;1.70;;;27.80;81.40;;;;;;5126767;23;20477;-71
2022/03/07 05:25:34;;;;;;;4.53;1.67;;;27.80;81.10;;;;;;5122781;23;20016;-72
2022/03/07 05:27:56;;;;;;;4.78;1.77;;;27.80;81.10;;;;;;5120622;23;20921;-68
2022/03/07 05:30:22;;;;;;;3.60;1.38;;;27.80;81.10;;;;;;5086951;23;20052;-74
2022/03/07 05:32:52;;;;;;;5.97;1.40;;;27.80;81.20;;;;;;5115806;23;20058;-70
2022/03/07 05:35:15;;;;;;;4.95;1.60;;;27.80;81.10;;;;;;5125902;23;20474;-67
2022/03/07 05:37:38;;;;;;;9.60;2.38;;;27.80;81.10;;;;;;5121674;23;20085;-73
2022/03/07 05:40:01;;;;;;;6.47;2.20;;;27.70;81.00;;;;;;5127350;23;20040;-68
2022/03/07 05:42:24;;;;;;;5.40;1.75;;;27.70;81.00;;;;;;5128055;23;20016;-70
2022/03/07 05:44:46;;;;;;;8.43;2.05;;;27.70;81.10;;;;;;5122340;23;20067;-71
2022/03/07 05:47:09;;;;;;;5.97;1.98;;;27.70;81.30;;;;;;5121493;23;20016;-69
2022/03/07 05:49:31;;;;;;;5.67;2.17;;;27.70;81.40;;;;;;5127371;23;20045;-70
2022/03/07 05:51:54;;;;;;;6.78;1.90;;;27.60;81.50;;;;;;5121484;23;20051;-70
2022/03/07 05:54:19;;;;;;;8.05;3.35;;;27.60;81.60;;;;;;5120233;23;20423;-68
2022/03/07 05:56:42;;;;;;;7.82;3.42;;;27.60;81.80;;;;;;5098764;23;20050;-71
2022/03/07 05:59:04;;;;;;;9.65;4.53;;;27.60;81.90;;;;;;5090005;23;20013;-70
2022/03/07 06:01:27;;;;;;;10.10;5.93;;;27.60;82.20;;;;;;5090437;23;20867;-68
2022/03/07 06:03:49;;;;;;;10.93;5.10;;;27.60;82.30;;;;;;5127636;23;20510;-70
2022/03/07 06:06:12;;;;;;;11.20;5.10;;;27.60;82.40;;;;;;5121393;23;20444;-68
2022/03/07 06:08:35;;;;;;;9.25;4.72;;;27.60;82.40;;;;;;5121339;23;20104;-70
2022/03/07 06:10:58;;;;;;;10.13;4.50;;;27.60;82.40;;;;;;5101765;23;20360;-67
2022/03/07 06:13:20;;;;;;;9.27;4.40;;;27.60;82.50;;;;;;5123038;23;20035;-68
2022/03/07 06:15:43;;;;;;;8.68;3.95;;;27.60;82.50;;;;;;5125153;23;20023;-68
2022/03/07 06:18:06;;;;;;;7.35;3.88;;;27.60;82.50;;;;;;5099968;23;20016;-66
2022/03/07 06:20:29;;;;;;;8.65;3.55;;;27.60;82.30;;;;;;5130247;23;20418;-68
2022/03/07 06:22:52;;;;;;;10.30;3.25;;;27.60;82.20;;;;;;5127515;23;20020;-67
2022/03/07 06:25:15;;;;;;;8.20;3.20;;;27.60;82.30;;;;;;5136514;23;20418;-66
2022/03/07 06:27:37;;;;;;;8.80;3.30;;;27.60;82.30;;;;;;5127252;23;20345;-66
2022/03/07 06:30:00;;;;;;;10.20;2.80;;;27.50;82.30;;;;;;5129952;23;20058;-66
2022/03/07 06:32:24;;;;;;;8.23;2.60;;;27.50;82.30;;;;;;5136378;23;20038;-67
2022/03/07 06:34:47;;;;;;;9.18;2.83;;;27.50;82.30;;;;;;5095745;23;20024;-67
2022/03/07 06:37:09;;;;;;;9.75;2.60;;;27.50;82.40;;;;;;5094125;23;20016;-68
2022/03/07 06:39:32;;;;;;;7.28;2.60;;;27.50;82.40;;;;;;5131517;23;20727;-66
2022/03/07 06:41:56;;;;;;;7.68;2.40;;;27.50;82.70;;;;;;5093816;23;20082;-69
2022/03/07 06:44:19;;;;;;;10.02;2.67;;;27.40;82.80;;;;;;5097012;23;20027;-66
2022/03/07 06:46:42;;;;;;;8.80;2.70;;;27.50;83.00;;;;;;5129246;23;20012;-67
2022/03/07 06:49:04;;;;;;;7.63;2.60;;;27.40;83.00;;;;;;5122849;23;20027;-64
2022/03/07 06:51:30;;;;;;;7.03;2.88;;;27.50;83.20;;;;;;5115339;23;20945;-73
2022/03/07 06:53:52;;;;;;;12.30;2.85;;;27.50;83.20;;;;;;5128957;23;20095;-71
2022/03/07 06:56:17;;;;;;;9.27;2.60;;;27.40;83.00;;;;;;5124371;23;20012;-68
2022/03/07 06:58:41;;;;;;;9.10;2.45;;;27.40;83.10;;;;;;5126920;23;20008;-66
2022/03/07 07:01:03;;;;;;;10.48;2.70;;;27.40;83.10;;;;;;5132238;23;20616;-66
2022/03/07 07:03:26;;;;;;;10.55;2.38;;;27.40;83.10;;;;;;5128985;23;20012;-67
2022/03/07 07:05:48;;;;;;;7.82;2.58;;;27.40;83.10;;;;;;5124701;23;20106;-71
2022/03/07 07:08:11;;;;;;;10.10;2.53;;;27.40;83.10;;;;;;5133635;23;20051;-66
2022/03/07 07:10:34;;;;;;;8.98;2.58;;;27.40;83.20;;;;;;5125605;23;20027;-71
2022/03/07 07:12:56;;;;;;;9.15;3.30;;;27.40;83.20;;;;;;5125108;23;20035;-67
2022/03/07 07:15:19;;;;;;;8.70;2.53;;;27.40;83.20;;;;;;5132161;23;20012;-70
2022/03/07 07:17:42;;;;;;;9.65;2.40;;;27.30;83.20;;;;;;5123797;23;20016;-67
2022/03/07 07:20:07;;;;;;;6.75;2.30;;;27.40;83.30;;;;;;5124230;23;20012;-65
2022/03/07 07:22:29;;;;;;;8.25;2.85;;;27.40;83.30;;;;;;5128105;23;20020;-66
2022/03/07 07:24:52;;;;;;;10.38;3.13;;;27.40;83.40;;;;;;5128233;23;20126;-66
2022/03/07 07:27:14;;;;;;;10.03;2.70;;;27.30;83.30;;;;;;5125768;23;20020;-73
2022/03/07 07:29:37;;;;;;;6.80;2.67;;;27.30;83.40;;;;;;5131246;23;20016;-72
2022/03/07 07:32:02;;;;;;;10.87;2.80;;;27.30;83.50;;;;;;5125361;23;20463;-74
2022/03/07 07:34:24;;;;;;;9.80;2.70;;;27.30;83.50;;;;;;5120294;23;20279;-69
2022/03/07 07:36:47;;;;;;;10.07;2.93;;;27.30;83.60;;;;;;5096107;23;20059;-68
2022/03/07 07:39:10;;;;;;;5.93;2.37;;;27.30;83.50;;;;;;5123459;23;20864;-67
2022/03/07 07:41:32;;;;;;;10.05;2.80;;;27.30;83.50;;;;;;5124366;23;20257;-67
2022/03/07 07:43:55;;;;;;;6.80;2.33;;;27.30;83.50;;;;;;5128566;23;20020;-71
2022/03/07 07:46:20;;;;;;;11.52;2.97;;;27.30;83.50;;;;;;5124166;23;20043;-70
2022/03/07 07:48:59;;;;;;;;;;;;;;;;;;;;;
2022/03/07 07:51:25;;;;;;;6.35;2.45;;;27.30;83.60;;;;;;5129154;23;20809;-68
2022/03/07 07:53:48;;;;;;;7.80;2.65;;;27.30;83.80;;;;;;5135794;23;20398;-67
2022/03/07 07:56:10;;;;;;;10.10;2.28;;;27.30;83.50;;;;;;5136293;23;20109;-67
2022/03/07 07:58:33;;;;;;;15.40;2.97;;;27.30;83.40;;;;;;5134092;23;20541;-73
2022/03/07 08:00:56;;;;;;;10.52;2.80;;;27.30;83.50;;;;;;5138543;23;20035;-66
2022/03/07 08:03:19;;;;;;;10.35;2.80;;;27.30;83.40;;;;;;5138590;23;20119;-64
2022/03/07 08:05:45;;;;;;;10.52;2.78;;;27.30;83.50;;;;;;5132940;23;20050;-65
2022/03/07 08:08:07;;;;;;;10.02;2.70;;;27.30;83.30;;;;;;5141698;23;20020;-65
2022/03/07 08:10:30;;;;;;;8.45;2.20;;;27.20;83.30;;;;;;5141362;23;20070;-67
2022/03/07 08:12:52;;;;;;;10.23;3.00;;;27.30;83.60;;;;;;5108363;23;20318;-66
2022/03/07 08:15:15;;;;;;;8.52;2.83;;;27.30;83.60;;;;;;5142979;23;20027;-64
2022/03/07 08:17:49;;;;;;;12.48;3.47;;;27.30;83.60;;;;;;5138408;23;20015;-65
2022/03/07 08:20:18;;;;;;;9.05;3.33;;;27.30;83.60;;;;;;5138742;23;20016;-64
2022/03/07 08:22:42;;;;;;;11.35;3.35;;;27.30;83.70;;;;;;5140374;23;20027;-62
2022/03/07 08:25:05;;;;;;;10.10;3.03;;;27.30;83.90;;;;;;5140824;22;20523;-70
2022/03/07 08:27:27;;;;;;;10.15;3.42;;;27.40;84.10;;;;;;5141486;23;20016;-70
2022/03/07 08:29:53;;;;;;;7.03;2.80;;;27.40;84.20;;;;;;5140443;23;20676;-71
2022/03/07 08:32:16;;;;;;;5.50;2.25;;;27.40;84.00;;;;;;5146438;23;20119;-69
2022/03/07 08:34:42;;;;;;;4.68;2.17;;;27.40;83.90;;;;;;5148129;23;20376;-68
2022/03/07 08:37:05;;;;;;;5.43;2.20;;;27.40;83.80;;;;;;5117300;23;20013;-65
2022/03/07 08:39:28;;;;;;;8.25;2.90;;;27.40;83.90;;;;;;5148000;23;20027;-70
2022/03/07 08:41:56;;;;;;;6.75;2.70;;;27.40;83.70;;;;;;5140358;23;20028;-73
2022/03/07 08:44:19;;;;;;;8.30;2.85;;;27.40;83.80;;;;;;5142576;23;20019;-73
2022/03/07 08:46:42;;;;;;;7.07;2.60;;;27.40;83.80;;;;;;5148867;23;20101;-71
2022/03/07 08:49:04;;;;;;;8.27;3.00;;;27.40;83.90;;;;;;5140671;23;20039;-73
2022/03/07 08:51:27;;;;;;;6.05;2.60;;;27.50;84.10;;;;;;5139418;23;20205;-70
2022/03/07 08:53:49;;;;;;;6.00;2.95;;;27.40;83.90;;;;;;5143414;22;20035;-71
2022/03/07 08:56:14;;;;;;;5.55;2.80;;;27.50;84.00;;;;;;5139005;23;20340;-74
2022/03/07 08:58:36;;;;;;;8.75;2.63;;;27.50;84.00;;;;;;5107619;23;20591;-73
2022/03/07 09:00:59;;;;;;;6.90;2.97;;;27.50;84.10;;;;;;5143229;23;20012;-72
2022/03/07 09:03:21;;;;;;;8.05;3.38;;;27.50;84.20;;;;;;5136667;23;20019;-73
2022/03/07 09:05:44;;;;;;;7.80;2.67;;;27.50;84.20;;;;;;5138798;23;20066;-72
2022/03/07 09:08:12;;;;;;;4.90;2.75;;;27.50;84.10;;;;;;5138821;23;20020;-72
2022/03/07 09:10:34;;;;;;;7.00;3.08;;;27.50;84.00;;;;;;5134555;23;20494;-72
2022/03/07 09:12:57;;;;;;;6.25;2.75;;;27.50;84.00;;;;;;5137607;23;20030;-74
2022/03/07 09:15:20;;;;;;;5.22;2.60;;;27.50;84.10;;;;;;5139243;23;20015;-72
2022/03/07 09:17:42;;;;;;;7.17;2.60;;;27.50;84.00;;;;;;5134135;23;20027;-74
2022/03/07 09:20:06;;;;;;;5.00;2.40;;;27.50;83.90;;;;;;5102695;23;20013;-72
2022/03/07 09:22:29;;;;;;;6.93;2.53;;;27.60;84.10;;;;;;5131293;23;20384;-74
2022/03/07 09:24:52;;;;;;;6.82;2.22;;;27.60;84.10;;;;;;5050776;22;20206;-77
2022/03/07 09:27:14;;;;;;;6.68;1.92;;;27.60;84.10;;;;;;5136365;23;20020;-71
2022/03/07 09:29:37;;;;;;;4.43;1.95;;;27.60;83.80;;;;;;5137425;23;20024;-72
2022/03/07 09:32:00;;;;;;;7.65;2.00;;;27.60;83.80;;;;;;5135795;23;20016;-68
2022/03/07 09:34:22;;;;;;;5.97;2.15;;;27.60;83.80;;;;;;5103279;23;20028;-66
2022/03/07 09:36:45;;;;;;;6.63;1.80;;;27.60;83.80;;;;;;5135292;23;20089;-74
2022/03/07 09:39:08;;;;;;;5.53;1.63;;;27.60;83.80;;;;;;5100487;23;20028;-74
2022/03/07 09:41:31;;;;;;;3.15;1.33;;;27.60;83.80;;;;;;5102538;23;20115;-74
2022/03/07 09:43:56;;;;;;;5.00;1.90;;;27.60;83.70;;;;;;5133909;23;20012;-74
2022/03/07 09:46:19;;;;;;;3.92;1.60;;;27.60;83.80;;;;;;5127212;23;20335;-70
2022/03/07 09:48:43;;;;;;;1.92;1.27;;;27.60;83.70;;;;;;5130503;23;20027;-69
2022/03/07 09:51:06;;;;;;;2.80;1.48;;;27.60;83.70;;;;;;5131911;23;20016;-72
2022/03/07 09:53:28;;;;;;;3.03;1.58;;;27.60;83.70;;;;;;5131768;23;20767;-73
2022/03/07 09:55:51;;;;;;;12.90;1.90;;;27.60;83.20;;;;;;5133742;23;20012;-70
2022/03/07 09:58:15;;;;;;;4.57;2.00;;;27.60;83.70;;;;;;5136333;23;20119;-69
2022/03/07 10:00:42;;;;;;;6.53;3.38;;;27.60;83.70;;;;;;5134654;23;20924;-71
2022/03/07 10:03:07;;;;;;;5.60;3.30;;;27.60;83.60;;;;;;5137427;23;20012;-70
2022/03/07 10:05:36;;;;;;;6.38;3.50;;;27.50;83.60;;;;;;5132786;23;20066;-69
2022/03/07 10:07:59;;;;;;;5.65;3.50;;;27.50;83.60;;;;;;5135687;23;20232;-67
2022/03/07 10:10:22;;;;;;;5.78;3.42;;;27.50;83.60;;;;;;5136420;23;20715;-68
2022/03/07 10:12:47;;;;;;;8.00;3.83;;;27.50;83.60;;;;;;5137044;23;20077;-65
2022/03/07 10:15:15;;;;;;;6.65;3.47;;;27.40;83.60;;;;;;5141391;23;20024;-67
2022/03/07 10:17:46;;;;;;;7.28;3.88;;;27.40;83.60;;;;;;5139499;23;20112;-69
2022/03/07 10:20:12;;;;;;;6.38;3.25;;;27.40;83.60;;;;;;5141566;23;20012;-72
2022/03/07 10:22:34;;;;;;;8.02;2.67;;;27.40;83.60;;;;;;5138554;23;20019;-70
2022/03/07 10:25:08;;;;;;;4.68;2.75;;;27.40;83.60;;;;;;5135738;23;20012;-74
2022/03/07 10:27:33;;;;;;;4.75;2.53;;;27.40;83.70;;;;;;5136315;23;20019;-76
2022/03/07 10:29:56;;;;;;;4.80;2.75;;;27.50;83.70;;;;;;5132716;23;20477;-73
2022/03/07 10:32:20;;;;;;;4.27;2.63;;;27.40;83.60;;;;;;5139161;23;20074;-75
2022/03/07 10:34:42;;;;;;;5.15;2.72;;;27.40;83.60;;;;;;5138407;23;20111;-69
2022/03/07 10:37:08;;;;;;;6.75;2.50;;;27.50;83.70;;;;;;5135602;23;20027;-73
2022/03/07 10:39:30;;;;;;;4.47;2.67;;;27.50;83.70;;;;;;5144577;23;20111;-75
2022/03/07 10:41:54;;;;;;;5.88;3.22;;;27.40;83.60;;;;;;5131528;23;20019;-73
2022/03/07 10:44:30;;;;;;;4.22;3.08;;;27.40;83.60;;;;;;5127966;23;20009;-75
2022/03/07 10:46:53;;;;;;;7.03;2.70;;;27.40;83.70;;;;;;5135075;23;20020;-72
2022/03/07 10:49:19;;;;;;;4.93;2.75;;;27.40;83.60;;;;;;5139953;23;20847;-75
2022/03/07 10:51:52;;;;;;;3.45;2.50;;;27.40;83.60;;;;;;5105470;23;20061;-73
2022/03/07 10:54:19;;;;;;;4.88;2.85;;;27.40;83.50;;;;;;5140468;23;20059;-76
2022/03/07 10:56:56;;;;;;;6.90;3.10;;;27.40;83.50;;;;;;5137347;23;20084;-73
2022/03/07 10:59:33;;;;;;;8.15;3.45;;;27.40;83.50;;;;;;5106886;23;20020;-71
2022/03/07 11:02:00;;;;;;;9.10;3.38;;;27.40;84.10;;;;;;5139355;23;20766;-70
2022/03/07 11:04:26;;;;;;;8.48;3.55;;;27.40;83.40;;;;;;5135015;23;20051;-73
2022/03/07 11:06:52;;;;;;;8.02;3.50;;;27.40;83.40;;;;;;5136808;23;20961;-77
2022/03/07 11:09:15;;;;;;;10.57;3.83;;;27.40;83.50;;;;;;5138454;23;20012;-76
2022/03/07 11:11:40;;;;;;;9.80;3.60;;;27.40;83.40;;;;;;5137837;23;20016;-71
2022/03/07 11:14:03;;;;;;;10.60;3.63;;;27.40;83.30;;;;;;5142282;23;20112;-75
2022/03/07 11:16:30;;;;;;;9.73;3.53;;;27.30;83.90;;;;;;5137279;23;20585;-77
2022/03/07 11:19:03;;;;;;;8.32;3.08;;;27.40;83.20;;;;;;5138340;23;20819;-71
2022/03/07 11:21:30;;;;;;;10.95;3.33;;;27.30;83.30;;;;;;5136494;23;20020;-73
2022/03/07 11:23:52;;;;;;;7.32;2.53;;;27.40;83.50;;;;;;5139521;23;20322;-70
2022/03/07 11:26:18;;;;;;;8.07;2.83;;;27.30;83.50;;;;;;5140580;23;20051;-72
2022/03/07 11:28:43;;;;;;;8.75;2.92;;;27.30;83.60;;;;;;5131369;23;20012;-68
2022/03/07 11:31:05;;;;;;;6.28;2.58;;;27.30;83.50;;;;;;5133487;23;20802;-75
2022/03/07 11:33:37;;;;;;;6.45;2.38;;;27.40;83.60;;;;;;5140781;23;20111;-70
2022/03/07 11:36:08;;;;;;;7.40;2.38;;;27.40;83.60;;;;;;5141149;23;20016;-79
2022/03/07 11:38:32;;;;;;;5.22;1.95;;;27.40;83.70;;;;;;5140439;23;20016;-72
2022/03/07 11:41:01;;;;;;;6.32;1.73;;;27.30;83.60;;;;;;5140201;23;20847;-66
2022/03/07 11:43:25;;;;;;;5.93;2.10;;;27.40;83.80;;;;;;5142008;23;20728;-76
2022/03/07 11:45:47;;;;;;;6.07;2.05;;;27.40;83.80;;;;;;5139259;23;20016;-72
2022/03/07 11:48:14;;;;;;;4.70;1.60;;;27.30;83.70;;;;;;5146207;22;20023;-73
2022/03/07 11:50:36;;;;;;;3.72;1.65;;;27.40;83.80;;;;;;5139414;23;20708;-74
2022/03/07 11:53:05;;;;;;;5.00;1.70;;;27.30;83.70;;;;;;5110472;23;20258;-72
2022/03/07 11:55:28;;;;;;;5.82;1.60;;;27.40;83.80;;;;;;5142475;23;20048;-77
2022/03/07 11:58:01;;;;;;;4.20;1.45;;;27.40;83.80;;;;;;5136848;23;20634;-70
2022/03/07 12:00:31;;;;;;;4.47;1.65;;;27.40;83.70;;;;;;5107476;23;20032;-80
2022/03/07 12:03:00;;;;;;;4.78;1.33;;;27.40;83.80;;;;;;5127258;23;20746;-75
2022/03/07 12:05:28;;;;;;;4.30;1.38;;;27.40;83.70;;;;;;5138141;23;20023;-80
2022/03/07 12:07:52;;;;;;;3.70;1.35;;;27.40;83.70;;;;;;5136226;23;20026;-68
2022/03/07 12:10:19;;;;;;;2.30;0.98;;;27.40;83.70;;;;;;5141907;23;20016;-67
2022/03/07 12:12:42;;;;;;;2.60;1.20;;;27.40;83.60;;;;;;5105862;23;20028;-72
2022/03/07 12:15:13;;;;;;;2.05;1.08;;;27.40;83.50;;;;;;5141864;23;20032;-72
2022/03/07 12:17:36;;;;;;;3.03;1.00;;;27.40;83.50;;;;;;5135560;23;20016;-80
2022/03/07 12:20:02;;;;;;;2.95;1.15;;;27.40;83.60;;;;;;5139070;23;20012;-71
2022/03/07 12:22:29;;;;;;;3.05;0.93;;;27.40;83.60;;;;;;5143388;23;20019;-71
2022/03/07 12:24:55;;;;;;;2.15;1.00;;;27.30;83.50;;;;;;5143414;23;20062;-77
2022/03/07 12:27:17;;;;;;;3.03;1.05;;;27.40;83.50;;;;;;5149058;23;20027;-74
2022/03/07 12:29:43;;;;;;;2.90;1.25;;;27.40;83.50;;;;;;5144505;23;20024;-74